sensor_id;sensor_type;location;lat;lon;timestamp;P1;durP1;ratioP1;P2;durP2;ratioP2
45548;SDS011;31270;48.328;10.096;2023-04-03T00:01:15;12.70;;;8.67;;
45548;SDS011;31270;48.328;10.096;2023-04-03T00:03:41;13.33;;;9.47;;
45548;SDS011;31270;48.328;10.096;2023-04-03T00:06:08;12.63;;;8.80;;
45548;SDS011;31270;48.328;10.096;2023-04-03T00:08:36;11.00;;;8.10;;
45548;SDS011;31270;48.328;10.096;2023-04-03T00:11:03;12.10;;;8.00;;
45548;SDS011;31270;48.328;10.096;2023-04-03T00:13:29;11.27;;;8.60;;
45548;SDS011;31270;48.328;10.096;2023-04-03T00:15:55;13.23;;;8.60;;
45548;SDS011;31270;48.328;10.096;2023-04-03T00:18:21;12.67;;;8.23;;
45548;SDS011;31270;48.328;10.096;2023-04-03T00:20:47;10.87;;;8.00;;
45548;SDS011;31270;48.328;10.096;2023-04-03T00:23:13;10.63;;;8.13;;
45548;SDS011;31270;48.328;10.096;2023-04-03T00:25:39;10.63;;;7.67;;
45548;SDS011;31270;48.328;10.096;2023-04-03T00:28:05;12.70;;;8.00;;
45548;SDS011;31270;48.328;10.096;2023-04-03T00:30:31;10.40;;;7.50;;
45548;SDS011;31270;48.328;10.096;2023-04-03T00:32:57;12.47;;;7.93;;
45548;SDS011;31270;48.328;10.096;2023-04-03T00:35:23;11.23;;;7.80;;
45548;SDS011;31270;48.328;10.096;2023-04-03T00:37:53;11.17;;;7.40;;
45548;SDS011;31270;48.328;10.096;2023-04-03T00:40:20;11.23;;;7.73;;
45548;SDS011;31270;48.328;10.096;2023-04-03T00:42:48;10.13;;;7.67;;
45548;SDS011;31270;48.328;10.096;2023-04-03T00:47:43;10.30;;;7.57;;
45548;SDS011;31270;48.328;10.096;2023-04-03T00:50:09;10.97;;;8.20;;
45548;SDS011;31270;48.328;10.096;2023-04-03T00:52:35;11.13;;;7.60;;
45548;SDS011;31270;48.328;10.096;2023-04-03T00:55:04;10.43;;;7.40;;
45548;SDS011;31270;48.328;10.096;2023-04-03T00:57:33;11.90;;;7.93;;
45548;SDS011;31270;48.328;10.096;2023-04-03T01:00:05;10.57;;;7.90;;
45548;SDS011;31270;48.328;10.096;2023-04-03T01:02:36;9.03;;;7.07;;
45548;SDS011;31270;48.328;10.096;2023-04-03T01:05:02;11.17;;;7.80;;
45548;SDS011;31270;48.328;10.096;2023-04-03T01:07:30;10.50;;;7.70;;
45548;SDS011;31270;48.328;10.096;2023-04-03T01:09:59;8.17;;;6.30;;
45548;SDS011;31270;48.328;10.096;2023-04-03T01:12:28;10.50;;;6.93;;
45548;SDS011;31270;48.328;10.096;2023-04-03T01:15:01;10.37;;;7.40;;
45548;SDS011;31270;48.328;10.096;2023-04-03T01:22:49;9.17;;;7.17;;
45548;SDS011;31270;48.328;10.096;2023-04-03T01:25:38;10.53;;;7.30;;
45548;SDS011;31270;48.328;10.096;2023-04-03T01:28:11;9.73;;;7.17;;
45548;SDS011;31270;48.328;10.096;2023-04-03T01:30:41;10.03;;;7.17;;
45548;SDS011;31270;48.328;10.096;2023-04-03T01:33:12;10.07;;;7.63;;
45548;SDS011;31270;48.328;10.096;2023-04-03T01:35:38;9.23;;;6.83;;
45548;SDS011;31270;48.328;10.096;2023-04-03T01:38:03;10.13;;;7.33;;
45548;SDS011;31270;48.328;10.096;2023-04-03T01:40:29;9.97;;;7.20;;
45548;SDS011;31270;48.328;10.096;2023-04-03T01:42:55;13.57;;;7.00;;
45548;SDS011;31270;48.328;10.096;2023-04-03T01:45:21;10.70;;;8.37;;
45548;SDS011;31270;48.328;10.096;2023-04-03T01:47:47;9.87;;;8.07;;
45548;SDS011;31270;48.328;10.096;2023-04-03T01:50:13;9.13;;;6.80;;
45548;SDS011;31270;48.328;10.096;2023-04-03T01:52:39;9.40;;;6.87;;
45548;SDS011;31270;48.328;10.096;2023-04-03T01:55:05;8.37;;;6.43;;
45548;SDS011;31270;48.328;10.096;2023-04-03T01:57:31;8.83;;;7.07;;
45548;SDS011;31270;48.328;10.096;2023-04-03T01:59:57;10.17;;;7.33;;
45548;SDS011;31270;48.328;10.096;2023-04-03T02:02:23;11.03;;;7.60;;
45548;SDS011;31270;48.328;10.096;2023-04-03T02:04:50;7.37;;;6.57;;
45548;SDS011;31270;48.328;10.096;2023-04-03T02:07:26;9.57;;;7.60;;
45548;SDS011;31270;48.328;10.096;2023-04-03T02:09:53;10.13;;;7.57;;
45548;SDS011;31270;48.328;10.096;2023-04-03T02:12:19;8.73;;;6.97;;
45548;SDS011;31270;48.328;10.096;2023-04-03T02:14:55;8.33;;;7.07;;
45548;SDS011;31270;48.328;10.096;2023-04-03T02:17:20;9.30;;;6.77;;
45548;SDS011;31270;48.328;10.096;2023-04-03T02:19:46;9.27;;;6.33;;
45548;SDS011;31270;48.328;10.096;2023-04-03T02:22:22;9.07;;;6.73;;
45548;SDS011;31270;48.328;10.096;2023-04-03T02:24:57;8.80;;;6.13;;
45548;SDS011;31270;48.328;10.096;2023-04-03T02:27:33;10.87;;;6.30;;
45548;SDS011;31270;48.328;10.096;2023-04-03T02:29:59;10.53;;;6.70;;
45548;SDS011;31270;48.328;10.096;2023-04-03T02:32:34;9.60;;;6.73;;
45548;SDS011;31270;48.328;10.096;2023-04-03T02:35:03;8.97;;;6.83;;
45548;SDS011;31270;48.328;10.096;2023-04-03T02:37:30;9.20;;;6.77;;
45548;SDS011;31270;48.328;10.096;2023-04-03T02:40:06;8.90;;;6.73;;
45548;SDS011;31270;48.328;10.096;2023-04-03T02:42:32;9.60;;;7.33;;
45548;SDS011;31270;48.328;10.096;2023-04-03T02:44:58;10.97;;;7.90;;
45548;SDS011;31270;48.328;10.096;2023-04-03T02:47:36;9.63;;;7.17;;
45548;SDS011;31270;48.328;10.096;2023-04-03T02:50:02;10.43;;;7.77;;
45548;SDS011;31270;48.328;10.096;2023-04-03T02:52:28;9.87;;;7.10;;
45548;SDS011;31270;48.328;10.096;2023-04-03T02:55:04;9.43;;;6.97;;
45548;SDS011;31270;48.328;10.096;2023-04-03T02:57:30;8.60;;;6.37;;
45548;SDS011;31270;48.328;10.096;2023-04-03T02:59:56;10.43;;;7.13;;
45548;SDS011;31270;48.328;10.096;2023-04-03T03:02:32;11.00;;;7.10;;
45548;SDS011;31270;48.328;10.096;2023-04-03T03:04:57;7.67;;;6.30;;
45548;SDS011;31270;48.328;10.096;2023-04-03T03:07:23;10.27;;;7.10;;
45548;SDS011;31270;48.328;10.096;2023-04-03T03:09:49;13.20;;;6.70;;
45548;SDS011;31270;48.328;10.096;2023-04-03T03:12:15;8.43;;;6.93;;
45548;SDS011;31270;48.328;10.096;2023-04-03T03:14:41;8.00;;;5.97;;
45548;SDS011;31270;48.328;10.096;2023-04-03T03:17:07;9.00;;;6.20;;
45548;SDS011;31270;48.328;10.096;2023-04-03T03:19:33;11.97;;;6.63;;
45548;SDS011;31270;48.328;10.096;2023-04-03T03:21:59;8.17;;;5.97;;
45548;SDS011;31270;48.328;10.096;2023-04-03T03:24:24;8.90;;;5.60;;
45548;SDS011;31270;48.328;10.096;2023-04-03T03:26:50;6.93;;;5.70;;
45548;SDS011;31270;48.328;10.096;2023-04-03T03:29:15;7.60;;;5.50;;
45548;SDS011;31270;48.328;10.096;2023-04-03T03:31:41;7.53;;;5.30;;
45548;SDS011;31270;48.328;10.096;2023-04-03T03:34:07;6.20;;;5.50;;
45548;SDS011;31270;48.328;10.096;2023-04-03T03:36:33;7.17;;;5.37;;
45548;SDS011;31270;48.328;10.096;2023-04-03T03:38:59;6.43;;;5.40;;
45548;SDS011;31270;48.328;10.096;2023-04-03T03:41:25;7.00;;;5.80;;
45548;SDS011;31270;48.328;10.096;2023-04-03T03:43:51;6.93;;;5.00;;
45548;SDS011;31270;48.328;10.096;2023-04-03T03:46:17;6.73;;;5.20;;
45548;SDS011;31270;48.328;10.096;2023-04-03T03:48:43;6.67;;;5.37;;
45548;SDS011;31270;48.328;10.096;2023-04-03T03:51:09;7.23;;;4.70;;
45548;SDS011;31270;48.328;10.096;2023-04-03T03:53:34;7.80;;;5.37;;
45548;SDS011;31270;48.328;10.096;2023-04-03T03:56:00;5.87;;;4.97;;
45548;SDS011;31270;48.328;10.096;2023-04-03T03:58:26;6.37;;;4.90;;
45548;SDS011;31270;48.328;10.096;2023-04-03T04:00:51;8.37;;;5.33;;
45548;SDS011;31270;48.328;10.096;2023-04-03T04:03:17;7.37;;;4.63;;
45548;SDS011;31270;48.328;10.096;2023-04-03T04:05:43;6.33;;;4.70;;
45548;SDS011;31270;48.328;10.096;2023-04-03T04:08:09;5.73;;;4.83;;
45548;SDS011;31270;48.328;10.096;2023-04-03T04:10:36;5.10;;;4.43;;
45548;SDS011;31270;48.328;10.096;2023-04-03T04:13:02;5.67;;;4.60;;
45548;SDS011;31270;48.328;10.096;2023-04-03T04:15:28;6.03;;;4.57;;
45548;SDS011;31270;48.328;10.096;2023-04-03T04:17:54;4.73;;;3.93;;
45548;SDS011;31270;48.328;10.096;2023-04-03T04:20:20;5.90;;;4.83;;
45548;SDS011;31270;48.328;10.096;2023-04-03T04:22:46;6.97;;;4.83;;
45548;SDS011;31270;48.328;10.096;2023-04-03T04:25:12;5.03;;;4.43;;
45548;SDS011;31270;48.328;10.096;2023-04-03T04:27:38;6.93;;;4.90;;
45548;SDS011;31270;48.328;10.096;2023-04-03T04:30:05;5.93;;;4.33;;
45548;SDS011;31270;48.328;10.096;2023-04-03T04:32:31;7.47;;;4.53;;
45548;SDS011;31270;48.328;10.096;2023-04-03T04:34:57;5.70;;;4.60;;
45548;SDS011;31270;48.328;10.096;2023-04-03T04:37:23;6.10;;;4.80;;
45548;SDS011;31270;48.328;10.096;2023-04-03T04:39:48;8.83;;;5.20;;
45548;SDS011;31270;48.328;10.096;2023-04-03T04:42:14;6.63;;;4.93;;
45548;SDS011;31270;48.328;10.096;2023-04-03T04:44:40;5.77;;;4.70;;
45548;SDS011;31270;48.328;10.096;2023-04-03T04:47:06;7.43;;;5.00;;
45548;SDS011;31270;48.328;10.096;2023-04-03T04:49:32;6.20;;;4.40;;
45548;SDS011;31270;48.328;10.096;2023-04-03T04:51:57;6.50;;;5.30;;
45548;SDS011;31270;48.328;10.096;2023-04-03T04:54:23;5.90;;;4.83;;
45548;SDS011;31270;48.328;10.096;2023-04-03T04:56:49;9.10;;;4.77;;
45548;SDS011;31270;48.328;10.096;2023-04-03T04:59:15;5.07;;;4.57;;
45548;SDS011;31270;48.328;10.096;2023-04-03T05:01:40;6.80;;;5.53;;
45548;SDS011;31270;48.328;10.096;2023-04-03T05:04:06;7.43;;;5.17;;
45548;SDS011;31270;48.328;10.096;2023-04-03T05:06:32;7.47;;;4.63;;
45548;SDS011;31270;48.328;10.096;2023-04-03T05:08:58;8.90;;;5.20;;
45548;SDS011;31270;48.328;10.096;2023-04-03T05:11:23;5.63;;;4.63;;
45548;SDS011;31270;48.328;10.096;2023-04-03T05:13:50;10.00;;;4.73;;
45548;SDS011;31270;48.328;10.096;2023-04-03T05:16:16;5.57;;;4.67;;
45548;SDS011;31270;48.328;10.096;2023-04-03T05:18:42;5.67;;;4.80;;
45548;SDS011;31270;48.328;10.096;2023-04-03T05:21:08;6.27;;;5.10;;
45548;SDS011;31270;48.328;10.096;2023-04-03T05:23:34;6.10;;;5.07;;
45548;SDS011;31270;48.328;10.096;2023-04-03T05:26:00;7.23;;;4.57;;
45548;SDS011;31270;48.328;10.096;2023-04-03T05:28:25;6.47;;;5.10;;
45548;SDS011;31270;48.328;10.096;2023-04-03T05:30:55;8.97;;;5.57;;
45548;SDS011;31270;48.328;10.096;2023-04-03T05:33:23;7.27;;;5.07;;
45548;SDS011;31270;48.328;10.096;2023-04-03T05:35:49;5.83;;;4.83;;
45548;SDS011;31270;48.328;10.096;2023-04-03T05:38:14;5.13;;;4.53;;
45548;SDS011;31270;48.328;10.096;2023-04-03T05:40:41;5.37;;;4.67;;
45548;SDS011;31270;48.328;10.096;2023-04-03T05:43:06;9.17;;;6.00;;
45548;SDS011;31270;48.328;10.096;2023-04-03T05:45:32;10.73;;;6.73;;
45548;SDS011;31270;48.328;10.096;2023-04-03T05:47:58;11.40;;;7.73;;
45548;SDS011;31270;48.328;10.096;2023-04-03T05:50:24;6.87;;;5.87;;
45548;SDS011;31270;48.328;10.096;2023-04-03T05:52:50;7.40;;;5.73;;
45548;SDS011;31270;48.328;10.096;2023-04-03T05:55:19;7.07;;;5.43;;
45548;SDS011;31270;48.328;10.096;2023-04-03T05:57:45;6.77;;;5.20;;
45548;SDS011;31270;48.328;10.096;2023-04-03T06:00:14;6.60;;;4.50;;
45548;SDS011;31270;48.328;10.096;2023-04-03T06:02:41;6.07;;;5.20;;
45548;SDS011;31270;48.328;10.096;2023-04-03T06:05:07;7.73;;;5.70;;
45548;SDS011;31270;48.328;10.096;2023-04-03T06:07:34;8.77;;;5.67;;
45548;SDS011;31270;48.328;10.096;2023-04-03T06:10:00;8.17;;;5.17;;
45548;SDS011;31270;48.328;10.096;2023-04-03T06:12:27;5.00;;;4.50;;
45548;SDS011;31270;48.328;10.096;2023-04-03T06:14:54;6.20;;;5.40;;
45548;SDS011;31270;48.328;10.096;2023-04-03T06:17:20;8.87;;;5.70;;
45548;SDS011;31270;48.328;10.096;2023-04-03T06:19:45;6.90;;;5.70;;
45548;SDS011;31270;48.328;10.096;2023-04-03T06:22:12;8.80;;;6.00;;
45548;SDS011;31270;48.328;10.096;2023-04-03T06:24:38;7.00;;;5.80;;
45548;SDS011;31270;48.328;10.096;2023-04-03T06:27:04;7.43;;;5.50;;
45548;SDS011;31270;48.328;10.096;2023-04-03T06:29:30;7.60;;;5.47;;
45548;SDS011;31270;48.328;10.096;2023-04-03T06:31:56;7.63;;;6.10;;
45548;SDS011;31270;48.328;10.096;2023-04-03T06:34:22;7.63;;;6.37;;
45548;SDS011;31270;48.328;10.096;2023-04-03T06:36:47;8.00;;;5.80;;
45548;SDS011;31270;48.328;10.096;2023-04-03T06:39:17;6.20;;;5.40;;
45548;SDS011;31270;48.328;10.096;2023-04-03T06:41:50;6.23;;;5.63;;
45548;SDS011;31270;48.328;10.096;2023-04-03T06:44:16;7.27;;;5.93;;
45548;SDS011;31270;48.328;10.096;2023-04-03T06:46:43;8.20;;;6.40;;
45548;SDS011;31270;48.328;10.096;2023-04-03T06:49:10;6.13;;;4.77;;
45548;SDS011;31270;48.328;10.096;2023-04-03T06:51:35;7.07;;;5.43;;
45548;SDS011;31270;48.328;10.096;2023-04-03T06:54:02;8.03;;;5.23;;
45548;SDS011;31270;48.328;10.096;2023-04-03T06:56:29;7.13;;;5.20;;
45548;SDS011;31270;48.328;10.096;2023-04-03T06:58:55;10.13;;;5.97;;
45548;SDS011;31270;48.328;10.096;2023-04-03T07:01:23;8.07;;;6.07;;
45548;SDS011;31270;48.328;10.096;2023-04-03T07:03:51;7.13;;;5.50;;
45548;SDS011;31270;48.328;10.096;2023-04-03T07:06:17;7.07;;;5.87;;
45548;SDS011;31270;48.328;10.096;2023-04-03T07:08:44;8.00;;;6.27;;
45548;SDS011;31270;48.328;10.096;2023-04-03T07:11:11;8.97;;;5.63;;
45548;SDS011;31270;48.328;10.096;2023-04-03T07:13:37;9.80;;;6.63;;
45548;SDS011;31270;48.328;10.096;2023-04-03T07:16:04;12.13;;;5.93;;
45548;SDS011;31270;48.328;10.096;2023-04-03T07:18:32;7.57;;;6.10;;
45548;SDS011;31270;48.328;10.096;2023-04-03T07:20:58;7.67;;;6.20;;
45548;SDS011;31270;48.328;10.096;2023-04-03T07:23:25;9.70;;;6.43;;
45548;SDS011;31270;48.328;10.096;2023-04-03T07:25:51;8.10;;;6.03;;
45548;SDS011;31270;48.328;10.096;2023-04-03T07:28:18;9.37;;;6.63;;
45548;SDS011;31270;48.328;10.096;2023-04-03T07:30:45;7.60;;;6.13;;
45548;SDS011;31270;48.328;10.096;2023-04-03T07:33:16;9.90;;;6.83;;
45548;SDS011;31270;48.328;10.096;2023-04-03T07:35:45;10.37;;;6.30;;
45548;SDS011;31270;48.328;10.096;2023-04-03T07:38:11;8.97;;;5.67;;
45548;SDS011;31270;48.328;10.096;2023-04-03T07:40:37;8.20;;;6.30;;
45548;SDS011;31270;48.328;10.096;2023-04-03T07:43:03;9.73;;;6.80;;
45548;SDS011;31270;48.328;10.096;2023-04-03T07:45:30;9.37;;;6.43;;
45548;SDS011;31270;48.328;10.096;2023-04-03T07:47:56;8.83;;;6.00;;
45548;SDS011;31270;48.328;10.096;2023-04-03T07:50:22;9.53;;;6.53;;
45548;SDS011;31270;48.328;10.096;2023-04-03T07:52:48;11.73;;;6.87;;
45548;SDS011;31270;48.328;10.096;2023-04-03T07:55:16;8.57;;;5.67;;
45548;SDS011;31270;48.328;10.096;2023-04-03T07:57:41;7.47;;;6.30;;
45548;SDS011;31270;48.328;10.096;2023-04-03T08:00:07;8.40;;;6.57;;
45548;SDS011;31270;48.328;10.096;2023-04-03T08:02:33;8.73;;;6.53;;
45548;SDS011;31270;48.328;10.096;2023-04-03T08:04:59;14.03;;;6.50;;
45548;SDS011;31270;48.328;10.096;2023-04-03T08:07:25;12.90;;;6.63;;
45548;SDS011;31270;48.328;10.096;2023-04-03T08:09:51;8.20;;;5.93;;
45548;SDS011;31270;48.328;10.096;2023-04-03T08:12:17;9.50;;;6.37;;
45548;SDS011;31270;48.328;10.096;2023-04-03T08:14:43;8.83;;;6.20;;
45548;SDS011;31270;48.328;10.096;2023-04-03T08:17:09;7.80;;;6.30;;
45548;SDS011;31270;48.328;10.096;2023-04-03T08:19:37;8.90;;;6.23;;
45548;SDS011;31270;48.328;10.096;2023-04-03T08:22:04;8.10;;;6.00;;
45548;SDS011;31270;48.328;10.096;2023-04-03T08:24:30;8.23;;;6.50;;
45548;SDS011;31270;48.328;10.096;2023-04-03T08:26:57;9.37;;;6.80;;
45548;SDS011;31270;48.328;10.096;2023-04-03T08:29:23;8.60;;;5.90;;
45548;SDS011;31270;48.328;10.096;2023-04-03T08:31:49;7.17;;;6.03;;
45548;SDS011;31270;48.328;10.096;2023-04-03T08:34:15;8.03;;;6.10;;
45548;SDS011;31270;48.328;10.096;2023-04-03T08:36:42;8.43;;;6.10;;
45548;SDS011;31270;48.328;10.096;2023-04-03T08:39:07;6.73;;;5.80;;
45548;SDS011;31270;48.328;10.096;2023-04-03T08:41:52;9.63;;;6.00;;
45548;SDS011;31270;48.328;10.096;2023-04-03T08:44:29;7.40;;;6.33;;
45548;SDS011;31270;48.328;10.096;2023-04-03T08:49:41;6.97;;;5.63;;
45548;SDS011;31270;48.328;10.096;2023-04-03T08:52:19;7.70;;;6.40;;
45548;SDS011;31270;48.328;10.096;2023-04-03T08:54:52;7.67;;;6.67;;
45548;SDS011;31270;48.328;10.096;2023-04-03T08:57:31;7.47;;;6.03;;
45548;SDS011;31270;48.328;10.096;2023-04-03T09:00:06;7.03;;;5.73;;
45548;SDS011;31270;48.328;10.096;2023-04-03T09:02:43;11.17;;;7.13;;
45548;SDS011;31270;48.328;10.096;2023-04-03T09:05:17;8.03;;;6.63;;
45548;SDS011;31270;48.328;10.096;2023-04-03T09:07:46;8.83;;;6.60;;
45548;SDS011;31270;48.328;10.096;2023-04-03T09:10:19;8.27;;;6.67;;
45548;SDS011;31270;48.328;10.096;2023-04-03T09:13:05;9.27;;;6.83;;
45548;SDS011;31270;48.328;10.096;2023-04-03T09:15:37;8.73;;;6.47;;
45548;SDS011;31270;48.328;10.096;2023-04-03T09:18:04;17.00;;;6.83;;
45548;SDS011;31270;48.328;10.096;2023-04-03T09:23:43;8.00;;;7.07;;
45548;SDS011;31270;48.328;10.096;2023-04-03T09:26:13;7.07;;;6.37;;
45548;SDS011;31270;48.328;10.096;2023-04-03T09:28:46;7.77;;;6.97;;
45548;SDS011;31270;48.328;10.096;2023-04-03T09:31:19;7.57;;;6.30;;
45548;SDS011;31270;48.328;10.096;2023-04-03T09:33:51;8.80;;;7.07;;
45548;SDS011;31270;48.328;10.096;2023-04-03T09:36:38;9.27;;;6.30;;
45548;SDS011;31270;48.328;10.096;2023-04-03T09:39:07;7.83;;;6.30;;
45548;SDS011;31270;48.328;10.096;2023-04-03T09:41:38;9.13;;;6.77;;
45548;SDS011;31270;48.328;10.096;2023-04-03T09:44:17;9.70;;;6.47;;
45548;SDS011;31270;48.328;10.096;2023-04-03T09:46:45;8.57;;;6.10;;
45548;SDS011;31270;48.328;10.096;2023-04-03T09:49:11;7.63;;;6.40;;
45548;SDS011;31270;48.328;10.096;2023-04-03T09:51:37;9.20;;;6.27;;
45548;SDS011;31270;48.328;10.096;2023-04-03T09:57:07;9.00;;;6.20;;
45548;SDS011;31270;48.328;10.096;2023-04-03T09:59:58;7.10;;;6.40;;
45548;SDS011;31270;48.328;10.096;2023-04-03T10:02:32;11.17;;;6.63;;
45548;SDS011;31270;48.328;10.096;2023-04-03T10:05:25;8.33;;;6.87;;
45548;SDS011;31270;48.328;10.096;2023-04-03T10:08:09;7.80;;;6.17;;
45548;SDS011;31270;48.328;10.096;2023-04-03T10:10:35;7.43;;;6.60;;
45548;SDS011;31270;48.328;10.096;2023-04-03T10:13:13;6.97;;;6.23;;
45548;SDS011;31270;48.328;10.096;2023-04-03T10:15:50;7.50;;;6.30;;
45548;SDS011;31270;48.328;10.096;2023-04-03T10:18:39;7.77;;;6.53;;
45548;SDS011;31270;48.328;10.096;2023-04-03T10:21:20;8.03;;;6.50;;
45548;SDS011;31270;48.328;10.096;2023-04-03T10:27:18;11.37;;;7.00;;
45548;SDS011;31270;48.328;10.096;2023-04-03T10:32:52;7.90;;;6.37;;
45548;SDS011;31270;48.328;10.096;2023-04-03T10:35:32;8.40;;;6.47;;
45548;SDS011;31270;48.328;10.096;2023-04-03T10:38:32;10.10;;;6.50;;
45548;SDS011;31270;48.328;10.096;2023-04-03T10:41:02;8.27;;;6.80;;
45548;SDS011;31270;48.328;10.096;2023-04-03T10:43:59;6.87;;;6.03;;
45548;SDS011;31270;48.328;10.096;2023-04-03T10:46:36;17.07;;;8.40;;
45548;SDS011;31270;48.328;10.096;2023-04-03T10:49:18;14.73;;;7.60;;
45548;SDS011;31270;48.328;10.096;2023-04-03T10:51:49;28.43;;;13.20;;
45548;SDS011;31270;48.328;10.096;2023-04-03T10:54:26;8.03;;;6.80;;
45548;SDS011;31270;48.328;10.096;2023-04-03T10:57:05;7.83;;;5.93;;
45548;SDS011;31270;48.328;10.096;2023-04-03T10:59:38;10.97;;;6.87;;
45548;SDS011;31270;48.328;10.096;2023-04-03T11:02:07;17.07;;;9.00;;
45548;SDS011;31270;48.328;10.096;2023-04-03T11:05:48;13.27;;;7.93;;
45548;SDS011;31270;48.328;10.096;2023-04-03T11:11:30;13.67;;;8.73;;
45548;SDS011;31270;48.328;10.096;2023-04-03T11:14:01;13.80;;;8.90;;
45548;SDS011;31270;48.328;10.096;2023-04-03T11:16:40;19.43;;;11.37;;
45548;SDS011;31270;48.328;10.096;2023-04-03T11:19:38;8.20;;;6.37;;
45548;SDS011;31270;48.328;10.096;2023-04-03T11:22:16;8.73;;;5.80;;
45548;SDS011;31270;48.328;10.096;2023-04-03T11:24:46;8.23;;;4.97;;
45548;SDS011;31270;48.328;10.096;2023-04-03T11:27:21;10.87;;;5.13;;
45548;SDS011;31270;48.328;10.096;2023-04-03T11:29:48;6.03;;;5.43;;
45548;SDS011;31270;48.328;10.096;2023-04-03T11:32:26;6.10;;;5.10;;
45548;SDS011;31270;48.328;10.096;2023-04-03T11:35:00;6.57;;;5.33;;
45548;SDS011;31270;48.328;10.096;2023-04-03T11:37:33;5.73;;;5.00;;
45548;SDS011;31270;48.328;10.096;2023-04-03T11:40:06;7.83;;;5.80;;
45548;SDS011;31270;48.328;10.096;2023-04-03T11:42:46;6.23;;;5.23;;
45548;SDS011;31270;48.328;10.096;2023-04-03T11:45:36;7.00;;;5.20;;
45548;SDS011;31270;48.328;10.096;2023-04-03T11:48:09;7.63;;;5.73;;
45548;SDS011;31270;48.328;10.096;2023-04-03T11:51:37;6.37;;;5.67;;
45548;SDS011;31270;48.328;10.096;2023-04-03T11:53:54;10.50;;;6.20;;
45548;SDS011;31270;48.328;10.096;2023-04-03T11:56:40;8.50;;;6.03;;
45548;SDS011;31270;48.328;10.096;2023-04-03T12:01:44;6.37;;;5.50;;
45548;SDS011;31270;48.328;10.096;2023-04-03T12:04:12;6.70;;;5.30;;
45548;SDS011;31270;48.328;10.096;2023-04-03T12:11:52;11.83;;;7.50;;
45548;SDS011;31270;48.328;10.096;2023-04-03T12:14:22;8.00;;;6.27;;
45548;SDS011;31270;48.328;10.096;2023-04-03T12:17:11;8.60;;;6.53;;
45548;SDS011;31270;48.328;10.096;2023-04-03T12:19:47;10.40;;;5.40;;
45548;SDS011;31270;48.328;10.096;2023-04-03T12:22:14;7.40;;;5.67;;
45548;SDS011;31270;48.328;10.096;2023-04-03T12:24:42;6.90;;;5.63;;
45548;SDS011;31270;48.328;10.096;2023-04-03T12:27:29;7.47;;;5.37;;
45548;SDS011;31270;48.328;10.096;2023-04-03T12:30:03;7.43;;;4.67;;
45548;SDS011;31270;48.328;10.096;2023-04-03T12:35:27;6.67;;;5.17;;
45548;SDS011;31270;48.328;10.096;2023-04-03T12:46:37;8.40;;;4.70;;
45548;SDS011;31270;48.328;10.096;2023-04-03T12:49:26;6.30;;;4.70;;
45548;SDS011;31270;48.328;10.096;2023-04-03T12:51:58;7.57;;;5.20;;
45548;SDS011;31270;48.328;10.096;2023-04-03T12:54:27;5.30;;;4.73;;
45548;SDS011;31270;48.328;10.096;2023-04-03T12:57:10;7.07;;;5.87;;
45548;SDS011;31270;48.328;10.096;2023-04-03T12:59:37;6.83;;;5.30;;
45548;SDS011;31270;48.328;10.096;2023-04-03T13:02:03;5.83;;;5.13;;
45548;SDS011;31270;48.328;10.096;2023-04-03T13:04:42;9.57;;;4.53;;
45548;SDS011;31270;48.328;10.096;2023-04-03T13:07:18;7.43;;;4.87;;
45548;SDS011;31270;48.328;10.096;2023-04-03T13:12:56;5.90;;;4.60;;
45548;SDS011;31270;48.328;10.096;2023-04-03T13:15:24;7.33;;;4.90;;
45548;SDS011;31270;48.328;10.096;2023-04-03T13:17:55;5.93;;;4.93;;
45548;SDS011;31270;48.328;10.096;2023-04-03T13:20:23;9.20;;;4.93;;
45548;SDS011;31270;48.328;10.096;2023-04-03T13:25:27;6.03;;;4.63;;
45548;SDS011;31270;48.328;10.096;2023-04-03T13:27:56;6.57;;;4.50;;
45548;SDS011;31270;48.328;10.096;2023-04-03T13:30:25;6.93;;;5.03;;
45548;SDS011;31270;48.328;10.096;2023-04-03T13:32:55;6.53;;;4.63;;
45548;SDS011;31270;48.328;10.096;2023-04-03T13:35:34;7.20;;;5.10;;
45548;SDS011;31270;48.328;10.096;2023-04-03T13:38:05;5.97;;;4.37;;
45548;SDS011;31270;48.328;10.096;2023-04-03T13:41:02;7.03;;;4.83;;
45548;SDS011;31270;48.328;10.096;2023-04-03T13:43:33;8.53;;;4.70;;
45548;SDS011;31270;48.328;10.096;2023-04-03T13:46:42;5.53;;;4.53;;
45548;SDS011;31270;48.328;10.096;2023-04-03T13:48:53;9.27;;;6.00;;
45548;SDS011;31270;48.328;10.096;2023-04-03T13:51:25;5.93;;;4.80;;
45548;SDS011;31270;48.328;10.096;2023-04-03T13:53:55;5.37;;;4.87;;
45548;SDS011;31270;48.328;10.096;2023-04-03T13:56:35;6.57;;;5.87;;
45548;SDS011;31270;48.328;10.096;2023-04-03T14:01:38;6.07;;;5.47;;
45548;SDS011;31270;48.328;10.096;2023-04-03T14:04:32;5.90;;;5.20;;
45548;SDS011;31270;48.328;10.096;2023-04-03T14:07:08;6.00;;;5.40;;
45548;SDS011;31270;48.328;10.096;2023-04-03T14:09:34;5.87;;;5.27;;
45548;SDS011;31270;48.328;10.096;2023-04-03T14:12:02;6.10;;;5.07;;
45548;SDS011;31270;48.328;10.096;2023-04-03T14:14:34;10.20;;;5.60;;
45548;SDS011;31270;48.328;10.096;2023-04-03T14:17:02;5.00;;;4.50;;
45548;SDS011;31270;48.328;10.096;2023-04-03T14:19:41;4.77;;;4.27;;
45548;SDS011;31270;48.328;10.096;2023-04-03T14:22:12;5.27;;;4.77;;
45548;SDS011;31270;48.328;10.096;2023-04-03T14:24:41;7.33;;;4.27;;
45548;SDS011;31270;48.328;10.096;2023-04-03T14:27:27;5.57;;;4.57;;
45548;SDS011;31270;48.328;10.096;2023-04-03T14:29:54;6.27;;;4.70;;
45548;SDS011;31270;48.328;10.096;2023-04-03T14:32:23;5.60;;;4.60;;
45548;SDS011;31270;48.328;10.096;2023-04-03T14:34:49;5.17;;;4.67;;
45548;SDS011;31270;48.328;10.096;2023-04-03T14:37:17;6.80;;;4.60;;
45548;SDS011;31270;48.328;10.096;2023-04-03T14:39:46;6.50;;;4.47;;
45548;SDS011;31270;48.328;10.096;2023-04-03T14:42:17;5.20;;;4.40;;
45548;SDS011;31270;48.328;10.096;2023-04-03T14:44:45;5.53;;;4.67;;
45548;SDS011;31270;48.328;10.096;2023-04-03T14:47:12;7.20;;;4.77;;
45548;SDS011;31270;48.328;10.096;2023-04-03T14:49:40;4.73;;;3.90;;
45548;SDS011;31270;48.328;10.096;2023-04-03T14:52:09;5.20;;;4.03;;
45548;SDS011;31270;48.328;10.096;2023-04-03T14:54:44;12.53;;;7.40;;
45548;SDS011;31270;48.328;10.096;2023-04-03T14:57:10;21.20;;;13.03;;
45548;SDS011;31270;48.328;10.096;2023-04-03T14:59:39;6.33;;;5.57;;
45548;SDS011;31270;48.328;10.096;2023-04-03T15:04:54;5.60;;;4.73;;
45548;SDS011;31270;48.328;10.096;2023-04-03T15:07:21;5.40;;;4.73;;
45548;SDS011;31270;48.328;10.096;2023-04-03T15:09:49;18.20;;;13.07;;
45548;SDS011;31270;48.328;10.096;2023-04-03T15:12:15;5.53;;;4.50;;
45548;SDS011;31270;48.328;10.096;2023-04-03T15:14:42;5.03;;;3.87;;
45548;SDS011;31270;48.328;10.096;2023-04-03T15:17:10;4.20;;;3.80;;
45548;SDS011;31270;48.328;10.096;2023-04-03T15:19:41;5.60;;;4.07;;
45548;SDS011;31270;48.328;10.096;2023-04-03T15:22:12;5.60;;;5.10;;
45548;SDS011;31270;48.328;10.096;2023-04-03T15:24:39;5.57;;;4.40;;
45548;SDS011;31270;48.328;10.096;2023-04-03T15:27:05;7.33;;;3.77;;
45548;SDS011;31270;48.328;10.096;2023-04-03T15:29:31;3.73;;;3.37;;
45548;SDS011;31270;48.328;10.096;2023-04-03T15:31:57;6.40;;;3.50;;
45548;SDS011;31270;48.328;10.096;2023-04-03T15:34:22;5.07;;;3.70;;
45548;SDS011;31270;48.328;10.096;2023-04-03T15:36:48;3.83;;;3.43;;
45548;SDS011;31270;48.328;10.096;2023-04-03T15:39:15;4.13;;;3.50;;
45548;SDS011;31270;48.328;10.096;2023-04-03T15:41:41;4.73;;;3.60;;
45548;SDS011;31270;48.328;10.096;2023-04-03T15:44:07;6.17;;;3.63;;